Airfield :
LOGIN :

Register | Disclaimer

   EN    FR    IT 

 










Legend :    VFR   Marginal VFR   IFR   Intensive IFR   Very Intensive IFR
Visi :
Ceiling :
>= 8 km
>= 3000ft
5 to 8 km
1000 to 3000 ft
1500m to 5 km
500 to 1000 ft
800 to 1500m
200 to 500 ft
< 800m
< 200 ft
Symbols :   Thunderstorms  Fog  Heavy snow  Heavy precipitations  Wind > 20 kt
SIGMETs :     Misc.  Thunderstorms  Icing  Turbulence  Mountain Waves  Volcanic Ashes






- Airport Elevation : 256 ft
- IATA code : KUN


EYKA - Kaunas

CURRENT METAR :
  • 270750Z 11006KT 070V130 CAVOK 11/06 Q1027

EXPIRED METARs :
  • 270720Z 09005KT 070V130 CAVOK 10/06 Q1027
  • 270650Z 09006KT 050V110 CAVOK 09/06 Q1027
  • 270620Z 07004KT CAVOK 07/05 Q1027
  • 270550Z 07004KT CAVOK 06/04 Q1027
  • 270520Z 06003KT 9999 MIFG FEW001 04/02 Q1027

TAF TAF EYKA
Valid from the 27 at 06:00 until the 28 at 06:00 UTC


270500Z 2706/2806 VRB05KT 9000 SCT020
TEMPO 2706/2708 SCT002
BECMG 2720/2721 BKN020



MET'MAP, your aeronautical weather chart ! - Copyright ORBIFLY December 2007 - Disclaimer

ORBIFLY MET'MAP TEAM :

Programming & Development : Alexandra Zaïnal
Concept & original design : Baudouin d'Aumeries
Assistance for programming : Marc-Olivier Méhu
Technical & hardware support : Manuel Goepfert

Contact : metmap@orbifly.com




SOURCES & CREDITS :

   NOAA